Time;durP1;ratioP1;P1;durP2;ratioP2;P2;SDS_P1;SDS_P2;PMS_P1;PMS_P2;Temp;Humidity;BMP_temperature;BMP_pressure;BME280_temperature;BME280_humidity;BME280_pressure;Samples;Min_cycle;Max_cycle;Signal;HPM_P1;HPM_P2
2023/04/24 00:01:33;;;;;;;1.00;0.80;;;10.90;99.90;;;;;;4998128;28;20088;-85
2023/04/24 00:03:59;;;;;;;1.10;0.90;;;10.80;99.90;;;;;;5031012;28;20049;-84
2023/04/24 00:06:32;;;;;;;0.87;0.80;;;10.80;99.90;;;;;;5032285;28;20037;-85
2023/04/24 00:09:00;;;;;;;1.03;1.03;;;10.80;99.90;;;;;;5031433;28;20389;-83
2023/04/24 00:11:26;;;;;;;1.93;1.27;;;10.70;99.90;;;;;;5031044;28;20064;-83
2023/04/24 00:13:53;;;;;;;1.73;1.20;;;10.70;99.90;;;;;;5030740;28;20076;-83
2023/04/24 00:16:18;;;;;;;2.60;1.90;;;10.70;99.90;;;;;;5030593;28;20123;-85
2023/04/24 00:18:44;;;;;;;2.93;1.63;;;10.60;99.90;;;;;;5014173;28;20041;-85
2023/04/24 00:21:11;;;;;;;1.80;1.70;;;10.60;99.90;;;;;;5030267;28;20120;-83
2023/04/24 00:23:36;;;;;;;1.67;1.57;;;10.60;99.90;;;;;;5013952;28;20043;-85
2023/04/24 00:26:02;;;;;;;1.90;1.80;;;10.50;99.90;;;;;;5030152;28;20421;-86
2023/04/24 00:28:28;;;;;;;2.20;2.00;;;10.50;99.90;;;;;;5030368;28;20470;-83
2023/04/24 00:30:54;;;;;;;3.07;2.13;;;10.50;99.90;;;;;;5027332;28;21671;-82
2023/04/24 00:33:20;;;;;;;2.63;2.43;;;10.50;99.90;;;;;;4960125;28;20050;-83
2023/04/24 00:35:45;;;;;;;2.20;2.10;;;10.50;99.90;;;;;;5011010;28;20084;-84
2023/04/24 00:38:11;;;;;;;2.50;2.30;;;10.50;99.90;;;;;;5030520;28;20485;-83
2023/04/24 00:40:37;;;;;;;2.30;2.10;;;10.40;99.90;;;;;;4970045;28;20479;-83
2023/04/24 00:43:03;;;;;;;2.07;1.93;;;10.50;99.90;;;;;;4997581;28;20397;-85
2023/04/24 00:45:31;;;;;;;2.60;2.40;;;10.50;99.90;;;;;;5030843;28;20128;-82
2023/04/24 00:47:57;;;;;;;3.00;2.33;;;10.50;99.90;;;;;;5030182;28;20482;-83
2023/04/24 00:50:24;;;;;;;3.20;2.90;;;10.50;99.90;;;;;;5030395;28;20053;-82
2023/04/24 00:52:50;;;;;;;3.00;2.80;;;10.40;99.90;;;;;;5033574;28;20056;-83
2023/04/24 00:55:17;;;;;;;3.73;3.00;;;10.40;99.90;;;;;;5018050;28;20049;-82
2023/04/24 00:57:43;;;;;;;3.23;2.93;;;10.40;99.90;;;;;;5034498;28;20128;-82
2023/04/24 01:00:12;;;;;;;3.17;2.87;;;10.50;99.90;;;;;;5001539;28;20555;-83
2023/04/24 01:02:43;;;;;;;3.00;2.80;;;10.50;99.90;;;;;;5034008;28;20493;-82
2023/04/24 01:05:09;;;;;;;3.20;2.90;;;10.40;99.90;;;;;;4995113;28;20046;-82
2023/04/24 01:07:36;;;;;;;3.30;3.00;;;10.50;99.90;;;;;;4978974;28;20042;-83
2023/04/24 01:10:03;;;;;;;3.80;3.50;;;10.50;99.90;;;;;;5034154;28;20045;-83
2023/04/24 01:12:29;;;;;;;4.00;3.60;;;10.50;99.90;;;;;;5034696;28;20068;-83
2023/04/24 01:14:56;;;;;;;3.97;3.67;;;10.50;99.90;;;;;;5017512;28;20379;-83
2023/04/24 01:17:22;;;;;;;4.20;3.80;;;10.60;99.90;;;;;;5017191;28;20037;-83
2023/04/24 01:19:48;;;;;;;4.50;4.10;;;10.50;99.90;;;;;;5033932;28;20104;-83
2023/04/24 01:22:15;;;;;;;4.60;4.20;;;10.50;99.90;;;;;;5033978;28;20088;-82
2023/04/24 01:24:41;;;;;;;4.60;4.20;;;10.60;99.90;;;;;;5028240;28;20108;-82
2023/04/24 01:27:08;;;;;;;4.67;4.27;;;10.60;99.90;;;;;;4997723;28;20038;-84
2023/04/24 01:29:35;;;;;;;5.40;4.90;;;10.60;99.90;;;;;;5005488;28;20559;-85
2023/04/24 01:32:00;;;;;;;5.30;4.80;;;10.60;99.90;;;;;;4994605;28;20038;-82
2023/04/24 01:34:27;;;;;;;7.33;5.67;;;10.60;99.90;;;;;;4983785;28;20795;-82
2023/04/24 01:36:52;;;;;;;5.90;5.20;;;10.60;99.90;;;;;;5027055;28;20069;-82
2023/04/24 01:39:20;;;;;;;6.60;5.60;;;10.60;99.90;;;;;;5033801;28;20497;-82
2023/04/24 01:41:46;;;;;;;6.13;5.53;;;10.60;99.90;;;;;;5033834;28;20049;-85
2023/04/24 01:44:12;;;;;;;6.97;6.00;;;10.60;99.90;;;;;;5033323;28;20041;-82
2023/04/24 01:46:38;;;;;;;5.53;5.03;;;10.60;99.90;;;;;;5033331;28;20041;-85
2023/04/24 01:49:04;;;;;;;6.83;5.20;;;10.50;99.90;;;;;;5028357;28;20419;-84
2023/04/24 01:51:30;;;;;;;5.13;4.63;;;10.50;99.90;;;;;;5001087;28;20045;-85
2023/04/24 01:53:55;;;;;;;5.00;4.60;;;10.40;99.90;;;;;;5017011;28;20041;-82
2023/04/24 01:56:22;;;;;;;5.10;4.70;;;10.40;99.90;;;;;;5028025;28;20051;-83
2023/04/24 01:58:50;;;;;;;5.97;5.37;;;10.40;99.90;;;;;;5016829;28;20378;-84
2023/04/24 02:01:20;;;;;;;5.53;5.03;;;10.30;99.90;;;;;;5034344;28;20042;-84
2023/04/24 02:03:45;;;;;;;5.80;5.40;;;10.30;99.90;;;;;;5017852;28;20485;-84
2023/04/24 02:06:11;;;;;;;5.83;5.43;;;10.20;99.90;;;;;;5011501;28;20037;-84
2023/04/24 02:08:37;;;;;;;5.80;5.37;;;10.20;99.90;;;;;;5032747;28;20045;-84
2023/04/24 02:11:02;;;;;;;6.53;6.00;;;10.20;99.90;;;;;;5032811;28;20048;-84
2023/04/24 02:13:28;;;;;;;6.73;6.13;;;10.10;99.90;;;;;;5033201;28;20576;-82
2023/04/24 02:15:54;;;;;;;6.57;5.97;;;10.10;99.90;;;;;;5001927;28;20045;-83
2023/04/24 02:18:20;;;;;;;6.60;6.07;;;10.10;99.90;;;;;;5024728;28;20449;-83
2023/04/24 02:20:46;;;;;;;6.50;5.97;;;10.10;99.90;;;;;;5030403;28;20410;-84
2023/04/24 02:23:13;;;;;;;6.00;5.50;;;10.00;99.90;;;;;;5000153;28;20041;-82
2023/04/24 02:25:38;;;;;;;6.47;5.97;;;10.00;99.90;;;;;;5032870;28;20530;-82
2023/04/24 02:28:04;;;;;;;6.80;6.20;;;10.10;99.90;;;;;;5016165;28;20056;-84
2023/04/24 02:30:30;;;;;;;6.43;5.93;;;10.00;99.90;;;;;;5016178;28;20051;-84
2023/04/24 02:32:56;;;;;;;6.77;6.17;;;10.00;99.90;;;;;;5032578;28;20053;-83
2023/04/24 02:35:22;;;;;;;6.50;5.90;;;10.00;99.90;;;;;;5033786;28;20041;-83
2023/04/24 02:37:47;;;;;;;6.83;6.20;;;10.00;99.90;;;;;;5032570;28;20087;-83
2023/04/24 02:40:13;;;;;;;8.30;6.93;;;10.00;99.90;;;;;;5032379;28;20041;-84
2023/04/24 02:42:39;;;;;;;6.90;6.30;;;10.00;99.90;;;;;;5032358;28;20052;-83
2023/04/24 02:45:05;;;;;;;6.67;6.07;;;10.00;99.90;;;;;;5032617;28;20045;-84
2023/04/24 02:47:31;;;;;;;7.10;6.50;;;9.90;99.90;;;;;;5015940;28;20049;-83
2023/04/24 02:49:56;;;;;;;6.60;6.00;;;9.90;99.90;;;;;;5032203;28;20067;-84
2023/04/24 02:52:22;;;;;;;7.40;6.70;;;9.90;99.90;;;;;;5015770;28;20084;-83
2023/04/24 02:54:48;;;;;;;7.57;6.87;;;9.90;99.90;;;;;;5032025;28;20073;-82
2023/04/24 02:57:13;;;;;;;7.00;6.40;;;9.90;99.90;;;;;;5024957;28;20049;-81
2023/04/24 02:59:39;;;;;;;7.90;7.20;;;9.90;99.90;;;;;;5031618;28;20045;-85
2023/04/24 03:02:05;;;;;;;7.53;6.80;;;9.90;99.90;;;;;;5015605;28;20125;-82
2023/04/24 03:04:31;;;;;;;7.90;7.20;;;9.90;99.90;;;;;;5031756;28;20049;-83
2023/04/24 03:06:58;;;;;;;8.17;7.37;;;9.90;99.90;;;;;;5015405;28;20048;-83
2023/04/24 03:09:24;;;;;;;8.00;7.20;;;9.90;99.90;;;;;;5031748;28;20053;-83
2023/04/24 03:11:50;;;;;;;8.43;7.57;;;9.90;99.90;;;;;;5031786;28;20386;-83
2023/04/24 03:14:16;;;;;;;8.33;7.50;;;9.90;99.90;;;;;;5015342;28;20045;-84
2023/04/24 03:16:42;;;;;;;7.93;7.13;;;9.90;99.90;;;;;;5031790;28;20041;-84
2023/04/24 03:19:07;;;;;;;8.40;7.60;;;9.90;99.90;;;;;;5032049;28;20120;-83
2023/04/24 03:21:35;;;;;;;8.10;7.30;;;9.80;99.90;;;;;;5031816;28;20051;-83
2023/04/24 03:24:01;;;;;;;8.60;7.77;;;9.80;99.90;;;;;;5023393;28;20557;-83
2023/04/24 03:26:26;;;;;;;7.80;7.10;;;9.80;99.90;;;;;;5026049;28;20120;-82
2023/04/24 03:28:52;;;;;;;9.33;8.00;;;9.80;99.90;;;;;;5014871;28;20053;-83
2023/04/24 03:31:19;;;;;;;9.10;8.23;;;9.90;99.90;;;;;;5031099;28;20045;-83
2023/04/24 03:33:44;;;;;;;9.90;8.63;;;9.80;99.90;;;;;;5031486;28;20457;-84
2023/04/24 03:36:10;;;;;;;8.70;7.80;;;9.80;99.90;;;;;;5014515;28;20269;-83
2023/04/24 03:38:35;;;;;;;8.50;7.63;;;9.80;99.90;;;;;;5014159;28;20416;-82
2023/04/24 03:41:01;;;;;;;8.63;7.93;;;9.80;99.90;;;;;;5014337;28;20037;-83
2023/04/24 03:43:27;;;;;;;9.07;8.27;;;9.80;99.90;;;;;;5030826;28;20069;-82
2023/04/24 03:45:53;;;;;;;8.30;7.47;;;9.80;99.90;;;;;;4998118;28;20034;-84
2023/04/24 03:48:18;;;;;;;8.73;7.93;;;9.80;99.90;;;;;;5031297;28;20041;-82
2023/04/24 03:50:44;;;;;;;8.83;7.93;;;9.80;99.90;;;;;;5030612;28;20056;-83
2023/04/24 03:53:10;;;;;;;8.80;7.90;;;9.80;99.90;;;;;;5014342;28;20438;-83
2023/04/24 03:55:35;;;;;;;8.77;7.97;;;9.80;99.90;;;;;;5030891;28;20134;-82
2023/04/24 03:58:01;;;;;;;8.67;7.20;;;9.70;99.90;;;;;;5030879;28;20037;-82
2023/04/24 04:00:27;;;;;;;7.67;6.93;;;9.70;99.90;;;;;;5030775;28;20409;-84
2023/04/24 04:02:53;;;;;;;7.63;6.93;;;9.70;99.90;;;;;;5030016;28;20081;-83
2023/04/24 04:05:19;;;;;;;7.83;7.13;;;9.70;99.90;;;;;;5030645;28;20146;-83
2023/04/24 04:07:45;;;;;;;7.70;7.00;;;9.70;99.90;;;;;;5030737;28;20096;-83
2023/04/24 04:10:10;;;;;;;7.80;7.07;;;9.70;99.90;;;;;;5014404;28;20567;-82
2023/04/24 04:12:36;;;;;;;8.17;7.37;;;9.70;99.90;;;;;;5030902;28;20049;-82
2023/04/24 04:15:02;;;;;;;8.97;7.33;;;9.70;99.90;;;;;;5030729;28;20037;-83
2023/04/24 04:17:27;;;;;;;7.60;6.80;;;9.70;99.90;;;;;;4995935;28;20046;-83
2023/04/24 04:19:53;;;;;;;7.63;6.73;;;9.70;99.90;;;;;;4991362;28;20049;-83
2023/04/24 04:22:19;;;;;;;8.43;7.30;;;9.70;99.90;;;;;;4991360;28;20053;-83
2023/04/24 04:24:46;;;;;;;7.60;6.90;;;9.70;99.90;;;;;;5010048;28;20124;-82
2023/04/24 04:27:12;;;;;;;7.23;6.63;;;9.70;99.90;;;;;;5030012;28;20069;-83
2023/04/24 04:29:38;;;;;;;7.10;6.40;;;9.70;99.90;;;;;;5014020;28;20049;-82
2023/04/24 04:32:04;;;;;;;6.10;5.60;;;9.70;99.90;;;;;;5030767;28;20091;-82
2023/04/24 04:34:31;;;;;;;7.33;6.00;;;9.70;99.90;;;;;;5014319;28;20063;-82
2023/04/24 04:37:00;;;;;;;6.27;5.03;;;9.70;99.90;;;;;;5021445;28;20527;-81
2023/04/24 04:39:28;;;;;;;6.27;5.67;;;9.70;99.90;;;;;;5030023;28;20042;-82
2023/04/24 04:41:53;;;;;;;7.70;6.90;;;9.70;99.90;;;;;;5029518;28;20038;-82
2023/04/24 04:44:19;;;;;;;7.03;5.97;;;9.70;99.90;;;;;;5029955;28;20481;-82
2023/04/24 04:46:45;;;;;;;8.37;6.83;;;9.70;99.90;;;;;;5029936;28;20041;-83
2023/04/24 04:49:11;;;;;;;8.23;7.23;;;9.70;99.90;;;;;;5012733;28;20041;-82
2023/04/24 04:51:37;;;;;;;7.57;6.80;;;9.70;99.90;;;;;;5030351;28;20049;-82
2023/04/24 04:54:02;;;;;;;6.73;6.13;;;9.70;99.90;;;;;;5026488;28;20056;-82
2023/04/24 04:56:28;;;;;;;7.83;7.03;;;9.70;99.90;;;;;;5010923;28;20697;-82
2023/04/24 04:58:54;;;;;;;7.50;6.67;;;9.70;99.90;;;;;;5010646;28;20135;-82
2023/04/24 05:01:19;;;;;;;8.73;6.80;;;9.70;99.90;;;;;;5027685;28;20034;-82
2023/04/24 05:03:45;;;;;;;7.23;6.53;;;9.70;99.90;;;;;;5013777;28;20382;-82
2023/04/24 05:06:11;;;;;;;7.40;6.20;;;9.70;99.90;;;;;;5024299;28;20037;-81
2023/04/24 05:08:36;;;;;;;7.40;6.60;;;9.70;99.90;;;;;;5030455;28;20042;-82
2023/04/24 05:11:02;;;;;;;6.33;5.73;;;9.70;99.90;;;;;;5030097;28;20481;-82
2023/04/24 05:13:28;;;;;;;6.47;5.83;;;9.70;99.90;;;;;;5030245;28;20037;-83
2023/04/24 05:15:53;;;;;;;6.43;5.03;;;9.70;99.90;;;;;;5030662;28;20045;-83
2023/04/24 05:18:19;;;;;;;5.83;5.07;;;9.60;99.90;;;;;;5013618;28;20053;-83
2023/04/24 05:20:45;;;;;;;5.70;5.10;;;9.60;99.90;;;;;;5030185;28;20057;-83
2023/04/24 05:23:11;;;;;;;6.00;5.13;;;9.70;99.90;;;;;;5030344;28;20044;-82
2023/04/24 05:25:39;;;;;;;5.33;4.80;;;9.60;99.90;;;;;;5030110;28;20120;-83
2023/04/24 05:28:04;;;;;;;4.97;4.30;;;9.60;99.90;;;;;;5030138;28;20052;-83
2023/04/24 05:30:30;;;;;;;4.80;4.30;;;9.70;99.90;;;;;;4970265;28;20045;-82
2023/04/24 05:32:56;;;;;;;5.17;4.60;;;9.60;99.90;;;;;;5030436;28;20045;-83
2023/04/24 05:35:22;;;;;;;5.37;4.87;;;9.60;99.90;;;;;;5030204;28;20052;-82
2023/04/24 05:37:47;;;;;;;5.90;5.10;;;9.60;99.90;;;;;;5031238;28;20045;-82
2023/04/24 05:40:13;;;;;;;7.10;5.03;;;9.70;99.90;;;;;;5033418;28;20198;-83
2023/04/24 05:42:39;;;;;;;6.23;5.20;;;9.60;99.90;;;;;;5033443;28;20041;-83
2023/04/24 05:45:05;;;;;;;6.60;5.40;;;9.60;99.90;;;;;;5017960;28;20045;-83
2023/04/24 05:47:31;;;;;;;6.30;5.53;;;9.60;99.90;;;;;;5026106;28;20041;-83
2023/04/24 05:49:56;;;;;;;6.77;5.73;;;9.70;99.90;;;;;;5016918;28;20072;-83
2023/04/24 05:52:22;;;;;;;7.77;5.83;;;9.70;99.90;;;;;;5014830;28;20124;-84
2023/04/24 05:54:48;;;;;;;7.00;5.80;;;9.70;99.90;;;;;;4987982;28;20049;-82
2023/04/24 05:57:13;;;;;;;6.67;5.67;;;9.70;99.90;;;;;;4997090;28;20486;-82
2023/04/24 05:59:41;;;;;;;7.97;6.07;;;9.70;99.90;;;;;;5001741;28;20426;-83
2023/04/24 06:02:07;;;;;;;7.73;5.57;;;9.80;99.90;;;;;;5028594;28;20052;-84
2023/04/24 06:04:33;;;;;;;8.27;5.40;;;9.80;99.90;;;;;;5032569;28;20464;-84
2023/04/24 06:06:59;;;;;;;6.57;5.30;;;9.80;99.90;;;;;;4999840;28;20080;-82
2023/04/24 06:09:25;;;;;;;6.47;5.00;;;9.80;99.90;;;;;;5031332;28;20081;-83
2023/04/24 06:11:54;;;;;;;7.30;5.40;;;9.80;99.90;;;;;;5013112;28;20056;-82
2023/04/24 06:14:20;;;;;;;6.47;5.40;;;9.80;99.90;;;;;;4983680;28;20680;-83
2023/04/24 06:16:46;;;;;;;7.37;5.30;;;9.80;99.90;;;;;;5032741;28;20049;-82
2023/04/24 06:19:11;;;;;;;7.33;4.83;;;9.80;99.90;;;;;;5022175;28;20042;-83
2023/04/24 06:21:37;;;;;;;7.70;5.30;;;9.80;99.90;;;;;;5032732;28;20041;-83
2023/04/24 06:24:04;;;;;;;7.03;4.77;;;9.80;99.90;;;;;;5021533;28;20049;-83
2023/04/24 06:26:30;;;;;;;5.67;4.43;;;9.80;99.90;;;;;;5012697;28;20506;-83
2023/04/24 06:28:56;;;;;;;5.17;4.50;;;9.80;99.90;;;;;;4995878;28;20123;-83
2023/04/24 06:31:22;;;;;;;6.73;4.90;;;9.90;99.90;;;;;;5012439;28;20042;-82
2023/04/24 06:33:49;;;;;;;5.67;4.53;;;9.90;99.90;;;;;;5026769;28;20053;-82
2023/04/24 06:36:15;;;;;;;6.37;4.90;;;9.90;99.90;;;;;;5024292;28;20055;-83
2023/04/24 06:38:41;;;;;;;5.43;4.70;;;9.90;99.90;;;;;;5015714;28;20049;-82
2023/04/24 06:41:07;;;;;;;5.53;4.40;;;9.90;99.90;;;;;;5009714;28;20047;-83
2023/04/24 06:43:33;;;;;;;6.03;4.63;;;10.00;99.90;;;;;;5023308;28;20477;-82
2023/04/24 06:46:00;;;;;;;6.27;4.77;;;10.00;99.90;;;;;;5003666;28;20503;-83
2023/04/24 06:48:26;;;;;;;4.83;4.33;;;10.00;99.90;;;;;;4995776;28;20046;-83
2023/04/24 06:50:52;;;;;;;5.87;4.47;;;10.00;99.90;;;;;;5030929;28;20064;-83
2023/04/24 06:53:18;;;;;;;6.70;4.70;;;10.00;99.90;;;;;;5014977;28;20042;-82
2023/04/24 06:55:45;;;;;;;5.53;4.93;;;10.10;99.90;;;;;;5032106;28;20084;-82
2023/04/24 06:58:11;;;;;;;6.17;5.13;;;10.00;99.90;;;;;;4978958;28;20074;-82
2023/04/24 07:00:38;;;;;;;6.00;4.77;;;10.10;99.90;;;;;;4985872;28;20053;-82
2023/04/24 07:03:05;;;;;;;6.23;4.53;;;10.10;99.90;;;;;;5031334;28;20410;-82
2023/04/24 07:05:31;;;;;;;6.33;5.20;;;10.10;99.90;;;;;;5014629;28;20049;-82
2023/04/24 07:08:00;;;;;;;5.57;4.60;;;10.20;99.90;;;;;;4978708;28;20497;-82
2023/04/24 07:10:28;;;;;;;4.83;4.00;;;10.10;99.90;;;;;;4991333;28;20110;-82
2023/04/24 07:12:56;;;;;;;3.20;2.90;;;10.10;99.90;;;;;;5031840;28;20416;-82
2023/04/24 07:15:23;;;;;;;2.80;2.60;;;10.10;99.90;;;;;;5031987;28;20116;-82
2023/04/24 07:17:49;;;;;;;2.80;2.40;;;10.10;99.90;;;;;;5031644;28;20172;-82
2023/04/24 07:20:15;;;;;;;2.50;2.30;;;10.10;99.90;;;;;;5015184;28;20046;-82
2023/04/24 07:22:41;;;;;;;3.37;2.20;;;10.10;99.90;;;;;;5031709;28;20053;-82
2023/04/24 07:25:07;;;;;;;4.00;3.17;;;10.10;99.90;;;;;;5015128;28;20029;-83
2023/04/24 07:27:33;;;;;;;3.37;3.07;;;10.10;99.90;;;;;;5031766;28;20045;-82
2023/04/24 07:29:59;;;;;;;3.90;3.47;;;10.20;99.90;;;;;;5015030;28;20585;-82
2023/04/24 07:32:25;;;;;;;4.93;3.60;;;10.10;99.90;;;;;;5031355;28;20099;-83
2023/04/24 07:34:51;;;;;;;5.77;4.10;;;10.20;99.90;;;;;;5014971;28;20055;-83
2023/04/24 07:37:16;;;;;;;5.83;4.53;;;10.20;99.90;;;;;;5014918;28;20076;-83
2023/04/24 07:39:42;;;;;;;5.00;4.00;;;10.20;99.90;;;;;;5031569;28;20037;-82
2023/04/24 07:42:08;;;;;;;5.60;4.23;;;10.20;99.90;;;;;;5031857;28;20048;-83
2023/04/24 07:44:34;;;;;;;5.20;4.30;;;10.30;99.90;;;;;;5031422;28;20041;-83
2023/04/24 07:46:59;;;;;;;5.87;4.17;;;10.30;99.90;;;;;;5014709;28;20500;-80
2023/04/24 07:49:25;;;;;;;5.23;4.27;;;10.20;99.90;;;;;;5031013;28;20045;-83
2023/04/24 07:51:51;;;;;;;4.33;3.53;;;10.20;99.90;;;;;;5031264;28;20041;-82
2023/04/24 07:54:16;;;;;;;3.50;2.70;;;10.20;99.90;;;;;;4998161;28;20037;-83
2023/04/24 07:56:43;;;;;;;4.20;3.07;;;10.10;99.90;;;;;;5030967;28;20121;-82
2023/04/24 07:59:10;;;;;;;3.77;2.90;;;10.10;99.90;;;;;;5030887;28;20405;-83
2023/04/24 08:01:36;;;;;;;4.80;3.07;;;10.10;99.90;;;;;;5030896;28;20033;-82
2023/04/24 08:04:01;;;;;;;3.27;2.90;;;10.00;99.90;;;;;;5030655;28;20464;-83
2023/04/24 08:06:30;;;;;;;4.43;3.03;;;10.00;99.90;;;;;;5014835;28;20073;-81
2023/04/24 08:08:59;;;;;;;7.13;3.63;;;10.00;99.90;;;;;;5030743;28;20104;-83
2023/04/24 08:11:25;;;;;;;5.63;2.97;;;10.00;99.90;;;;;;5030577;28;20049;-82
2023/04/24 08:13:51;;;;;;;4.57;3.07;;;10.00;99.90;;;;;;5030928;28;20052;-83
2023/04/24 08:16:17;;;;;;;4.73;2.87;;;10.00;99.90;;;;;;5030984;28;20397;-83
2023/04/24 08:18:43;;;;;;;3.17;2.57;;;10.00;99.90;;;;;;5014454;28;20045;-83
2023/04/24 08:21:08;;;;;;;3.43;2.60;;;10.00;99.90;;;;;;5014278;28;20103;-83
2023/04/24 08:23:34;;;;;;;3.77;2.43;;;10.00;99.90;;;;;;4997996;28;20041;-83
2023/04/24 08:26:00;;;;;;;4.93;2.60;;;10.00;99.90;;;;;;5030946;28;20085;-84
2023/04/24 08:28:26;;;;;;;5.87;2.80;;;10.00;99.90;;;;;;4998211;28;20041;-83
2023/04/24 08:30:54;;;;;;;4.97;2.70;;;10.00;99.90;;;;;;5014160;28;20554;-82
2023/04/24 08:33:21;;;;;;;4.73;3.10;;;10.00;99.90;;;;;;5027841;28;20050;-82
2023/04/24 08:35:47;;;;;;;6.80;4.00;;;9.90;99.90;;;;;;5028087;28;20042;-84
2023/04/24 08:38:13;;;;;;;8.73;5.20;;;9.90;99.90;;;;;;5014346;28;20068;-81
2023/04/24 08:40:39;;;;;;;11.53;6.17;;;9.80;99.90;;;;;;5030335;28;20064;-83
2023/04/24 08:43:05;;;;;;;13.20;6.73;;;9.80;99.90;;;;;;5030880;28;20034;-83
2023/04/24 08:45:33;;;;;;;17.60;8.30;;;9.70;99.90;;;;;;5030884;28;20099;-82
2023/04/24 08:47:59;;;;;;;11.83;8.40;;;9.70;99.90;;;;;;5030461;28;20044;-82
2023/04/24 08:50:25;;;;;;;16.57;9.90;;;9.60;99.90;;;;;;5030728;28;20045;-83
2023/04/24 08:52:53;;;;;;;18.33;10.37;;;9.60;99.90;;;;;;5013938;28;20415;-82
2023/04/24 08:55:20;;;;;;;18.07;10.97;;;9.60;99.90;;;;;;5030322;28;20128;-80
2023/04/24 08:57:51;;;;;;;17.73;11.13;;;9.60;99.90;;;;;;5030498;28;20727;-82
2023/04/24 09:00:18;;;;;;;22.08;12.45;;;9.50;99.90;;;;;;5030370;28;20046;-82
2023/04/24 09:02:45;;;;;;;26.07;13.70;;;9.50;99.90;;;;;;5013521;28;20045;-83
2023/04/24 09:05:12;;;;;;;23.80;13.57;;;9.60;99.90;;;;;;5030558;28;20049;-82
2023/04/24 09:07:41;;;;;;;22.60;13.60;;;9.50;99.90;;;;;;5013874;28;20043;-83
2023/04/24 09:10:07;;;;;;;28.27;14.83;;;9.50;99.90;;;;;;5030278;28;20045;-83
2023/04/24 09:12:34;;;;;;;25.10;15.40;;;9.50;99.90;;;;;;5031549;28;20048;-83
2023/04/24 09:15:03;;;;;;;24.70;14.80;;;9.40;99.90;;;;;;5033987;28;20660;-82
2023/04/24 09:17:30;;;;;;;19.63;13.27;;;9.40;99.90;;;;;;5017456;28;20049;-82
2023/04/24 09:19:55;;;;;;;24.53;13.60;;;9.30;99.90;;;;;;5017605;28;20042;-82
2023/04/24 09:22:21;;;;;;;24.90;14.37;;;9.20;99.90;;;;;;5031867;28;20578;-82
2023/04/24 09:24:48;;;;;;;23.70;14.60;;;9.20;99.90;;;;;;5033471;28;20041;-83
2023/04/24 09:27:16;;;;;;;25.27;16.30;;;9.10;99.90;;;;;;5033868;28;20094;-83
2023/04/24 09:29:57;;;;;;;26.33;15.77;;;9.20;99.90;;;;;;5033778;28;20045;-82
2023/04/24 09:32:29;;;;;;;28.17;15.68;;;9.10;99.90;;;;;;5033654;28;20047;-82
2023/04/24 09:35:08;;;;;;;23.50;15.07;;;9.10;99.90;;;;;;5033874;28;20064;-82
2023/04/24 09:37:44;;;;;;;27.33;16.47;;;9.10;99.90;;;;;;5033580;28;20054;-83
2023/04/24 09:40:14;;;;;;;24.33;16.03;;;9.10;99.90;;;;;;5019939;28;20061;-83
2023/04/24 09:42:44;;;;;;;28.00;16.87;;;9.10;99.90;;;;;;5010924;28;20111;-82
2023/04/24 09:45:11;;;;;;;25.67;15.70;;;9.00;99.90;;;;;;5012952;28;20049;-82
2023/04/24 09:47:38;;;;;;;25.93;15.40;;;9.00;99.90;;;;;;5019394;28;20042;-83
2023/04/24 09:50:15;;;;;;;21.50;15.60;;;9.10;99.90;;;;;;5023229;28;20184;-83
2023/04/24 09:53:02;;;;;;;26.37;16.07;;;9.10;99.90;;;;;;5009445;28;20395;-82
2023/04/24 09:55:28;;;;;;;25.10;16.00;;;9.10;99.90;;;;;;5033060;28;20041;-82
2023/04/24 09:57:57;;;;;;;24.07;15.27;;;9.10;99.90;;;;;;5033342;28;20068;-83
2023/04/24 10:00:26;;;;;;;24.73;15.07;;;9.10;99.90;;;;;;5005445;28;20042;-82
2023/04/24 10:02:59;;;;;;;24.50;14.77;;;9.20;99.90;;;;;;4996985;28;20034;-83
2023/04/24 10:05:36;;;;;;;25.27;14.93;;;9.20;99.90;;;;;;5010322;28;20037;-83
2023/04/24 10:08:02;;;;;;;21.10;13.07;;;9.20;99.90;;;;;;5013077;28;20436;-83
2023/04/24 10:10:29;;;;;;;21.30;13.57;;;9.20;99.90;;;;;;5022100;28;20046;-82
2023/04/24 10:12:55;;;;;;;19.67;12.27;;;9.20;99.90;;;;;;5005866;28;20056;-82
2023/04/24 10:15:21;;;;;;;18.20;12.00;;;9.10;99.90;;;;;;5014210;28;20037;-83
2023/04/24 10:17:52;;;;;;;18.33;11.87;;;9.20;99.90;;;;;;5019244;28;20466;-83
2023/04/24 10:20:39;;;;;;;15.57;11.80;;;9.20;99.90;;;;;;5015931;28;20512;-83
2023/04/24 10:23:05;;;;;;;17.23;11.80;;;9.30;99.90;;;;;;5021318;28;20055;-82
2023/04/24 10:25:33;;;;;;;17.20;12.07;;;9.20;99.90;;;;;;5011806;28;20048;-83
2023/04/24 10:28:00;;;;;;;21.37;12.73;;;9.20;99.90;;;;;;5012803;28;20179;-82
2023/04/24 10:30:28;;;;;;;17.47;10.57;;;9.20;99.90;;;;;;4993266;28;20475;-82
2023/04/24 10:32:54;;;;;;;19.97;11.07;;;9.20;99.90;;;;;;5003130;28;20577;-82
2023/04/24 10:35:22;;;;;;;16.77;11.63;;;9.20;99.90;;;;;;5031457;28;20072;-82
2023/04/24 10:38:05;;;;;;;16.97;10.90;;;9.20;99.90;;;;;;5021756;28;20154;-82
2023/04/24 10:40:35;;;;;;;19.93;11.60;;;9.30;99.90;;;;;;5026269;28;20557;-82
2023/04/24 10:43:10;;;;;;;17.53;10.63;;;9.40;99.90;;;;;;4996350;28;20516;-83
2023/04/24 10:45:37;;;;;;;17.13;10.20;;;9.50;99.90;;;;;;5012597;28;20125;-82
2023/04/24 10:48:10;;;;;;;14.77;9.57;;;9.50;99.90;;;;;;5008159;28;20045;-83
2023/04/24 10:50:53;;;;;;;19.60;10.43;;;9.50;99.90;;;;;;5022057;28;20184;-83
2023/04/24 10:53:23;;;;;;;13.10;8.77;;;9.60;99.90;;;;;;5032270;28;20049;-83
2023/04/24 10:56:05;;;;;;;10.97;7.37;;;9.60;99.90;;;;;;5032497;28;20046;-82
2023/04/24 10:58:38;;;;;;;10.38;5.78;;;9.60;99.90;;;;;;5004877;28;20045;-83
2023/04/24 11:01:04;;;;;;;11.67;6.37;;;9.60;99.90;;;;;;5032218;28;20075;-82
2023/04/24 11:03:31;;;;;;;17.30;6.43;;;9.50;99.90;;;;;;5031877;28;20485;-82
2023/04/24 11:05:58;;;;;;;13.73;6.43;;;9.50;99.90;;;;;;5005019;28;20045;-82
2023/04/24 11:08:25;;;;;;;10.00;5.87;;;9.50;99.90;;;;;;4992601;28;20088;-82
2023/04/24 11:11:00;;;;;;;13.20;5.47;;;9.50;99.90;;;;;;4981233;28;20477;-84
2023/04/24 11:13:48;;;;;;;9.60;4.83;;;9.40;99.90;;;;;;5013880;28;20084;-82
2023/04/24 11:16:22;;;;;;;8.40;4.53;;;9.50;99.90;;;;;;5032029;28;20063;-82
2023/04/24 11:18:54;;;;;;;12.07;4.33;;;9.40;99.90;;;;;;5015002;28;20049;-82
2023/04/24 11:21:20;;;;;;;;;;;9.40;99.90;;;;;;5015779;28;20073;-83
2023/04/24 11:23:46;;;;;;;8.17;4.00;;;9.50;99.90;;;;;;5025694;28;19918;-82
2023/04/24 11:26:24;;;;;;;7.40;4.13;;;9.50;99.90;;;;;;4992077;28;20038;-83
2023/04/24 11:28:50;;;;;;;10.50;4.33;;;9.70;99.90;;;;;;5018679;28;20050;-82
2023/04/24 11:31:39;;;;;;;8.17;3.97;;;9.80;99.90;;;;;;5002703;28;20497;-82
2023/04/24 11:34:13;;;;;;;5.87;3.40;;;10.00;99.90;;;;;;5014440;28;20041;-82
2023/04/24 11:36:42;;;;;;;5.17;3.53;;;10.00;99.90;;;;;;5007056;28;20046;-83
2023/04/24 11:39:08;;;;;;;5.67;3.10;;;10.00;99.90;;;;;;4992030;28;20088;-81
2023/04/24 11:41:35;;;;;;;8.60;3.53;;;9.90;99.90;;;;;;5013124;28;20049;-83
2023/04/24 11:44:02;;;;;;;11.23;3.53;;;9.80;99.90;;;;;;4981730;28;20484;-84
2023/04/24 11:46:47;;;;;;;7.93;3.43;;;9.70;99.90;;;;;;5014639;28;20038;-84
2023/04/24 11:49:13;;;;;;;8.37;3.87;;;9.70;99.90;;;;;;5017448;28;20049;-83
2023/04/24 11:51:38;;;;;;;11.77;3.80;;;9.70;99.90;;;;;;5000972;28;20076;-82
2023/04/24 11:54:08;;;;;;;8.57;3.17;;;9.60;99.90;;;;;;5029729;28;20064;-83
2023/04/24 11:56:33;;;;;;;9.50;3.60;;;9.70;99.90;;;;;;4986171;28;20128;-82
2023/04/24 11:58:59;;;;;;;10.33;3.47;;;9.80;99.90;;;;;;5010558;28;20136;-81
2023/04/24 12:01:25;;;;;;;11.10;3.70;;;9.80;99.90;;;;;;5007936;28;20037;-82
2023/04/24 12:03:59;;;;;;;8.53;3.50;;;9.90;99.90;;;;;;5008626;28;20057;-82
2023/04/24 12:06:25;;;;;;;9.57;3.63;;;9.90;99.90;;;;;;4995350;28;20493;-82
2023/04/24 12:08:54;;;;;;;7.00;2.97;;;9.90;99.90;;;;;;5008217;28;20096;-82
2023/04/24 12:11:20;;;;;;;6.97;2.90;;;9.90;99.90;;;;;;4974552;28;20037;-80
2023/04/24 12:13:46;;;;;;;10.77;3.27;;;9.80;99.90;;;;;;4992726;28;20121;-81
2023/04/24 12:16:12;;;;;;;6.97;2.70;;;9.80;99.90;;;;;;5009063;28;20125;-81
2023/04/24 12:18:43;;;;;;;8.57;2.93;;;9.80;99.90;;;;;;4991618;28;20053;-82
2023/04/24 12:21:20;;;;;;;4.77;2.20;;;9.70;99.90;;;;;;4992288;28;21145;-82
2023/04/24 12:23:46;;;;;;;7.60;2.40;;;9.60;99.90;;;;;;5006798;28;20331;-83
2023/04/24 12:26:19;;;;;;;9.53;2.77;;;9.60;99.90;;;;;;5009441;28;20393;-81
2023/04/24 12:28:48;;;;;;;5.63;2.40;;;9.60;99.90;;;;;;4973906;28;20142;-82
2023/04/24 12:31:15;;;;;;;6.27;2.30;;;9.50;99.90;;;;;;5008369;28;20050;-82
2023/04/24 12:33:41;;;;;;;3.37;2.10;;;9.50;99.90;;;;;;5005466;28;20394;-81
2023/04/24 12:36:10;;;;;;;4.53;2.30;;;9.50;99.90;;;;;;4990045;28;20168;-80
2023/04/24 12:38:40;;;;;;;4.00;2.20;;;9.50;99.90;;;;;;5006641;28;20489;-80
2023/04/24 12:41:07;;;;;;;6.10;2.50;;;9.50;99.90;;;;;;5007376;28;20038;-81
2023/04/24 12:43:34;;;;;;;5.53;2.23;;;9.60;99.90;;;;;;5007536;28;20414;-81
2023/04/24 12:46:00;;;;;;;3.80;2.00;;;9.60;99.90;;;;;;5009769;28;20041;-80
2023/04/24 12:48:26;;;;;;;5.67;2.70;;;9.60;99.90;;;;;;4990879;28;20046;-81
2023/04/24 12:50:52;;;;;;;7.60;2.73;;;9.60;99.90;;;;;;4993923;28;20084;-80